createdAt,value
2023-04-29T00:02:54.999Z,10.17
2023-04-29T00:07:58.028Z,10.20
2023-04-29T00:12:59.717Z,10.21
2023-04-29T00:18:01.702Z,10.24
2023-04-29T00:23:03.438Z,10.27
2023-04-29T00:28:06.015Z,10.31
2023-04-29T00:33:10.503Z,10.33
2023-04-29T00:38:15.107Z,10.35
2023-04-29T00:43:17.046Z,10.35
2023-04-29T00:48:18.727Z,10.30
2023-04-29T00:53:20.777Z,10.27
2023-04-29T00:58:24.015Z,10.24
2023-04-29T01:03:25.808Z,10.25
2023-04-29T01:08:41.715Z,10.23
2023-04-29T01:13:47.496Z,10.26
2023-04-29T01:18:58.929Z,10.28
2023-04-29T01:24:05.649Z,10.31
2023-04-29T01:29:28.596Z,10.34
2023-04-29T01:35:09.622Z,10.34
2023-04-29T01:40:12.886Z,10.30
2023-04-29T01:45:21.972Z,10.21
2023-04-29T01:50:24.224Z,10.16
2023-04-29T01:55:26.579Z,10.07
2023-04-29T02:00:43.445Z,10.03
2023-04-29T02:05:46.007Z,10.05
2023-04-29T02:10:55.320Z,10.06
2023-04-29T02:16:23.115Z,10.07
2023-04-29T02:21:35.232Z,10.06
2023-04-29T02:26:38.273Z,10.06
2023-04-29T02:31:40.082Z,10.13
2023-04-29T02:36:41.737Z,10.24
2023-04-29T02:41:43.454Z,10.27
2023-04-29T02:46:47.132Z,10.30
2023-04-29T02:51:49.978Z,10.31
2023-04-29T02:56:51.776Z,10.36
2023-04-29T03:01:54.638Z,10.40
2023-04-29T03:06:59.485Z,10.40
2023-04-29T03:12:03.041Z,10.48
2023-04-29T03:17:05.357Z,10.52
2023-04-29T03:22:08.538Z,10.55
2023-04-29T03:27:11.260Z,10.54
2023-04-29T03:32:12.999Z,10.54
2023-04-29T03:37:16.510Z,10.55
2023-04-29T03:42:22.323Z,10.51
2023-04-29T03:47:24.687Z,10.47
2023-04-29T03:52:26.503Z,10.46
2023-04-29T03:57:34.220Z,10.47
2023-04-29T04:02:36.386Z,10.49
2023-04-29T04:07:38.293Z,10.51
2023-04-29T04:12:59.907Z,10.53
2023-04-29T04:18:01.835Z,10.55
2023-04-29T04:23:03.711Z,10.59
2023-04-29T04:28:05.570Z,10.69
2023-04-29T04:33:27.806Z,10.77
2023-04-29T04:38:29.718Z,10.80
2023-04-29T04:43:31.532Z,10.83
2023-04-29T04:48:33.409Z,10.81
2023-04-29T04:53:35.257Z,10.78
2023-04-29T04:58:41.730Z,10.78
2023-04-29T05:03:43.680Z,10.89
2023-04-29T05:08:45.699Z,10.96
2023-04-29T05:13:49.114Z,11.06
2023-04-29T05:18:52.237Z,11.15
2023-04-29T05:23:54.091Z,11.21
2023-04-29T05:28:56.135Z,11.26
2023-04-29T05:33:59.081Z,11.37
2023-04-29T05:39:01.688Z,11.64
2023-04-29T05:44:04.260Z,12.10
2023-04-29T05:49:07.372Z,12.18
2023-04-29T05:54:09.027Z,12.02
2023-04-29T05:59:11.899Z,12.09
2023-04-29T06:04:15.895Z,12.45
2023-04-29T06:09:47.320Z,12.79
2023-04-29T06:14:49.370Z,12.98
2023-04-29T06:19:51.909Z,13.16
2023-04-29T06:24:53.907Z,13.41
2023-04-29T06:30:15.500Z,13.60
2023-04-29T06:35:17.252Z,13.73
2023-04-29T06:40:48.132Z,13.77
2023-04-29T06:46:08.534Z,13.62
2023-04-29T06:51:16.495Z,13.40
2023-04-29T06:56:18.411Z,13.42
2023-04-29T07:01:22.933Z,13.45
2023-04-29T07:06:25.889Z,13.54
2023-04-29T07:11:27.758Z,13.62
2023-04-29T07:16:29.426Z,13.54
2023-04-29T07:21:31.395Z,13.24
2023-04-29T07:26:33.527Z,13.05
2023-04-29T07:31:37.966Z,13.04
2023-04-29T07:36:40.117Z,13.21
2023-04-29T07:41:42.077Z,13.49
2023-04-29T07:46:44.561Z,13.76
2023-04-29T07:51:46.475Z,13.76
2023-04-29T07:56:48.325Z,13.88
2023-04-29T08:01:50.153Z,13.76
2023-04-29T08:06:52.043Z,13.78
2023-04-29T08:11:53.686Z,13.73
2023-04-29T08:16:55.767Z,14.32
2023-04-29T08:21:57.457Z,14.59
2023-04-29T08:26:59.347Z,14.17
2023-04-29T08:32:01.548Z,14.05
2023-04-29T08:37:03.618Z,13.70
2023-04-29T08:42:09.288Z,13.41
2023-04-29T08:47:11.102Z,13.25
2023-04-29T08:52:13.188Z,13.20
2023-04-29T08:57:14.921Z,13.11
2023-04-29T09:02:18.032Z,13.01
2023-04-29T09:07:19.791Z,12.94
2023-04-29T09:12:21.959Z,12.94
2023-04-29T09:17:43.726Z,12.91
2023-04-29T09:22:49.590Z,12.83
2023-04-29T09:27:51.804Z,12.74
2023-04-29T09:33:05.558Z,12.83
2023-04-29T09:38:15.011Z,13.01
2023-04-29T09:43:18.655Z,13.11
2023-04-29T09:48:20.348Z,13.35
2023-04-29T09:53:29.705Z,13.45
2023-04-29T09:58:37.887Z,13.75
2023-04-29T10:03:42.742Z,14.15
2023-04-29T10:08:44.818Z,14.34
2023-04-29T10:13:47.793Z,14.39
2023-04-29T10:18:55.476Z,14.64
2023-04-29T10:23:59.141Z,14.67
2023-04-29T10:29:01.068Z,14.50
2023-04-29T10:34:03.247Z,14.08
2023-04-29T10:39:08.595Z,14.15
2023-04-29T10:44:10.730Z,14.34
2023-04-29T10:49:13.333Z,14.76
2023-04-29T10:54:16.592Z,14.53
2023-04-29T10:59:43.477Z,14.51
2023-04-29T11:05:07.743Z,14.62
2023-04-29T11:10:09.519Z,14.75
2023-04-29T11:15:11.505Z,14.76
2023-04-29T11:20:16.471Z,14.53
2023-04-29T11:25:18.799Z,14.39
2023-04-29T11:30:21.198Z,14.50
2023-04-29T11:35:22.786Z,14.58
2023-04-29T11:40:24.605Z,14.71
2023-04-29T11:45:26.929Z,14.80
2023-04-29T11:50:29.578Z,14.66
2023-04-29T11:55:31.415Z,14.60
2023-04-29T12:00:33.265Z,14.77
2023-04-29T12:05:34.957Z,14.56
2023-04-29T12:10:36.964Z,14.21
2023-04-29T12:15:40.267Z,13.95
2023-04-29T12:20:42.109Z,13.71
2023-04-29T12:25:49.239Z,13.48
2023-04-29T12:30:53.812Z,13.29
2023-04-29T12:35:57.025Z,12.98
2023-04-29T12:40:59.762Z,13.07
2023-04-29T12:46:08.039Z,13.36
2023-04-29T12:51:10.774Z,13.48
2023-04-29T12:56:12.437Z,13.25
2023-04-29T13:01:18.389Z,13.17
2023-04-29T13:06:20.428Z,13.38
2023-04-29T13:11:22.088Z,13.14
2023-04-29T13:16:25.508Z,12.68
2023-04-29T13:21:32.099Z,12.34
2023-04-29T13:26:33.720Z,11.94
2023-04-29T13:31:35.529Z,11.53
2023-04-29T13:36:37.170Z,11.29
2023-04-29T13:41:42.211Z,11.20
2023-04-29T13:46:47.751Z,11.08
2023-04-29T13:52:26.313Z,11.05
2023-04-29T13:58:12.486Z,10.97
2023-04-29T14:02:39.193Z,10.95
2023-04-29T14:07:52.022Z,11.00
2023-04-29T14:12:54.454Z,10.99
2023-04-29T14:17:56.989Z,11.03
2023-04-29T14:23:02.808Z,11.14
2023-04-29T14:28:07.576Z,11.16
2023-04-29T14:33:20.660Z,11.20
2023-04-29T14:38:23.821Z,11.26
2023-04-29T14:43:26.501Z,11.31
2023-04-29T14:48:28.850Z,11.30
2023-04-29T14:53:36.109Z,11.43
2023-04-29T14:58:37.857Z,11.50
2023-04-29T15:03:45.592Z,11.55
2023-04-29T15:08:47.846Z,11.61
2023-04-29T15:13:52.064Z,11.63
2023-04-29T15:18:56.574Z,11.74
2023-04-29T15:23:58.184Z,11.83
2023-04-29T15:28:59.843Z,11.94
2023-04-29T15:34:01.994Z,11.99
2023-04-29T15:39:03.734Z,11.94
2023-04-29T15:44:08.117Z,12.00
2023-04-29T15:49:09.771Z,11.94
2023-04-29T15:54:14.116Z,11.92
2023-04-29T15:59:16.039Z,11.89
2023-04-29T16:04:18.118Z,11.88
2023-04-29T16:09:20.064Z,11.83
2023-04-29T16:14:21.766Z,11.85
2023-04-29T16:19:23.404Z,11.91
2023-04-29T16:24:25.104Z,11.94
2023-04-29T16:29:26.781Z,11.95
2023-04-29T16:34:29.119Z,11.97
2023-04-29T16:39:31.197Z,12.00
2023-04-29T16:44:32.869Z,12.02
2023-04-29T16:49:34.700Z,12.04
2023-04-29T16:54:36.530Z,12.01
2023-04-29T16:59:38.210Z,12.01
2023-04-29T17:04:40.995Z,12.02
2023-04-29T17:09:44.334Z,12.07
2023-04-29T17:14:46.965Z,12.10
2023-04-29T17:19:50.196Z,12.04
2023-04-29T17:24:52.115Z,11.98
2023-04-29T17:29:53.870Z,11.94
2023-04-29T17:34:56.441Z,11.90
2023-04-29T17:39:58.164Z,11.86
2023-04-29T17:44:59.869Z,11.82
2023-04-29T17:50:02.472Z,11.81
2023-04-29T17:55:05.152Z,11.76
2023-04-29T18:00:09.036Z,11.73
2023-04-29T18:05:10.754Z,11.71
2023-04-29T18:10:12.376Z,11.67
2023-04-29T18:15:16.495Z,11.63
2023-04-29T18:20:19.031Z,11.60
2023-04-29T18:25:20.794Z,11.55
2023-04-29T18:30:22.442Z,11.52
2023-04-29T18:35:24.085Z,11.50
2023-04-29T18:40:25.729Z,11.48
2023-04-29T18:45:27.397Z,11.46
2023-04-29T18:50:29.095Z,11.46
2023-04-29T18:55:30.709Z,11.46
2023-04-29T19:00:32.428Z,11.43
2023-04-29T19:05:34.936Z,11.42
2023-04-29T19:10:36.665Z,11.39
2023-04-29T19:15:38.915Z,11.38
2023-04-29T19:20:40.984Z,11.34
2023-04-29T19:25:42.650Z,11.33
2023-04-29T19:30:44.307Z,11.33
2023-04-29T19:35:46.009Z,11.31
2023-04-29T19:40:47.789Z,11.30
2023-04-29T19:45:49.756Z,11.28
2023-04-29T19:50:51.400Z,11.27
2023-04-29T19:55:56.337Z,11.29
2023-04-29T20:00:58.014Z,11.29
2023-04-29T20:05:59.992Z,11.28
2023-04-29T20:11:03.058Z,11.28
2023-04-29T20:16:04.850Z,11.26
2023-04-29T20:21:06.943Z,11.25
2023-04-29T20:26:08.616Z,11.23
2023-04-29T20:31:10.287Z,11.21
2023-04-29T20:36:11.949Z,11.21
2023-04-29T20:41:13.611Z,11.20
2023-04-29T20:46:16.774Z,11.18
2023-04-29T20:51:18.455Z,11.17
2023-04-29T20:56:20.171Z,11.18
2023-04-29T21:01:22.164Z,11.17
2023-04-29T21:06:26.523Z,11.16
2023-04-29T21:11:28.527Z,11.16
2023-04-29T21:16:30.180Z,11.13
2023-04-29T21:21:31.829Z,11.12
2023-04-29T21:26:33.733Z,11.09
2023-04-29T21:31:37.737Z,11.07
2023-04-29T21:36:42.265Z,11.07
2023-04-29T21:41:43.924Z,11.04
2023-04-29T21:46:45.710Z,11.02
2023-04-29T21:51:48.788Z,10.98
2023-04-29T21:56:53.462Z,10.97
2023-04-29T22:02:15.018Z,10.93
2023-04-29T22:07:23.851Z,10.90
2023-04-29T22:12:40.166Z,10.87
2023-04-29T22:17:54.945Z,10.83
2023-04-29T22:22:56.948Z,10.80
2023-04-29T22:27:58.585Z,10.78
2023-04-29T22:33:05.098Z,10.73
2023-04-29T22:38:06.944Z,10.71
2023-04-29T22:43:11.511Z,10.71
2023-04-29T22:48:13.163Z,10.71
2023-04-29T22:53:14.846Z,10.71
2023-04-29T22:58:16.525Z,10.70
2023-04-29T23:03:18.485Z,10.71
2023-04-29T23:08:20.654Z,10.71
2023-04-29T23:13:22.401Z,10.71
2023-04-29T23:18:24.056Z,10.71
2023-04-29T23:23:25.703Z,10.71
2023-04-29T23:28:27.489Z,10.68
2023-04-29T23:33:29.274Z,10.65
2023-04-29T23:38:30.937Z,10.63
2023-04-29T23:43:32.669Z,10.60
2023-04-29T23:48:34.317Z,10.58
2023-04-29T23:53:36.183Z,10.55
2023-04-29T23:58:37.837Z,10.52
